Time;durP1;ratioP1;P1;durP2;ratioP2;P2;SDS_P1;SDS_P2;PMS_P1;PMS_P2;Temp;Humidity;BMP_temperature;BMP_pressure;BME280_temperature;BME280_humidity;BME280_pressure;Samples;Min_cycle;Max_cycle;Signal;HPM_P1;HPM_P2
2022/02/23 00:02:06;;;;;;;;;;;7.40;99.90;;;;;;5055654;28;19920;-84
2022/02/23 00:04:32;;;;;;;;;;;7.40;99.90;;;;;;5051004;28;19933;-84
2022/02/23 00:06:57;;;;;;;;;;;7.30;99.90;;;;;;5054014;28;20301;-84
2022/02/23 00:09:23;;;;;;;;;;;7.30;99.90;;;;;;5050633;28;20382;-83
2022/02/23 00:11:48;;;;;;;;;;;7.30;99.90;;;;;;5048721;28;19975;-84
2022/02/23 00:14:14;;;;;;;;;;;7.20;99.90;;;;;;5052504;28;19920;-83
2022/02/23 00:16:40;;;;;;;;;;;7.20;99.90;;;;;;5055359;28;19923;-83
2022/02/23 00:19:07;;;;;;;;;;;7.20;99.90;;;;;;5057622;28;19940;-83
2022/02/23 00:21:33;;;;;;;;;;;7.10;99.90;;;;;;5056584;28;20426;-84
2022/02/23 00:23:58;;;;;;;;;;;7.10;99.90;;;;;;5056634;28;19912;-85
2022/02/23 00:26:24;;;;;;;;;;;7.00;99.90;;;;;;5056980;28;19913;-85
2022/02/23 00:28:49;;;;;;;;;;;7.00;99.90;;;;;;5058633;28;20007;-84
2022/02/23 00:31:15;;;;;;;;;;;7.00;99.90;;;;;;5054030;28;19917;-84
2022/02/23 00:33:40;;;;;;;;;;;6.90;99.90;;;;;;5049439;28;19913;-85
2022/02/23 00:36:06;;;;;;;;;;;6.90;99.90;;;;;;5057452;28;19935;-84
2022/02/23 00:38:31;;;;;;;;;;;6.90;99.90;;;;;;5057061;28;19923;-84
2022/02/23 00:40:57;;;;;;;;;;;6.90;99.90;;;;;;5057875;28;19913;-84
2022/02/23 00:43:22;;;;;;;;;;;6.80;93.70;;;;;;5055404;28;20013;-84
2022/02/23 00:45:47;;;;;;;;;;;6.80;99.90;;;;;;5058642;28;19913;-84
2022/02/23 00:48:13;;;;;;;;;;;6.80;94.00;;;;;;5056294;28;20763;-84
2022/02/23 00:50:38;;;;;;;;;;;6.70;60.90;;;;;;5053195;28;19913;-83
2022/02/23 00:53:04;;;;;;;;;;;6.70;53.70;;;;;;5055168;28;19912;-84
2022/02/23 00:55:29;;;;;;;;;;;6.70;36.80;;;;;;5051166;28;20304;-84
2022/02/23 00:57:55;;;;;;;;;;;6.60;46.00;;;;;;5055430;28;19924;-83
2022/02/23 01:00:21;;;;;;;;;;;6.60;39.90;;;;;;5056964;28;19913;-83
2022/02/23 01:02:46;;;;;;;;;;;6.60;52.10;;;;;;5056315;28;20392;-85
2022/02/23 01:05:11;;;;;;;;;;;6.50;90.20;;;;;;5056009;28;19974;-84
2022/02/23 01:07:37;;;;;;;;;;;6.50;99.90;;;;;;5055919;28;19920;-84
2022/02/23 01:10:04;;;;;;;;;;;6.50;99.90;;;;;;5056307;28;19912;-83
2022/02/23 01:12:29;;;;;;;;;;;6.50;99.90;;;;;;5057427;28;20106;-83
2022/02/23 01:14:54;;;;;;;;;;;6.40;99.90;;;;;;5056439;28;19912;-82
2022/02/23 01:17:20;;;;;;;;;;;6.40;99.90;;;;;;5055334;28;19936;-83
2022/02/23 01:19:45;;;;;;;;;;;6.40;99.90;;;;;;5055602;28;19917;-83
2022/02/23 01:22:11;;;;;;;;;;;6.40;99.90;;;;;;5054521;28;19928;-83
2022/02/23 01:24:36;;;;;;;;;;;6.30;99.90;;;;;;5055418;28;19920;-83
2022/02/23 01:27:02;;;;;;;;;;;6.30;1.00;;;;;;5056414;28;19913;-84
2022/02/23 01:29:27;;;;;;;;;;;6.30;1.00;;;;;;5057578;28;19970;-84
2022/02/23 01:31:53;;;;;;;;;;;6.30;1.00;;;;;;5056403;28;19913;-84
2022/02/23 01:34:18;;;;;;;;;;;6.30;8.30;;;;;;5053032;28;19913;-83
2022/02/23 01:36:44;;;;;;;;;;;6.30;86.30;;;;;;5056273;28;20007;-84
2022/02/23 01:39:09;;;;;;;;;;;6.30;99.90;;;;;;5049036;28;20393;-84
2022/02/23 01:41:35;;;;;;;;;;;6.30;99.90;;;;;;5058135;28;19999;-83
2022/02/23 01:44:00;;;;;;;;;;;6.30;99.90;;;;;;5053712;28;19917;-84
2022/02/23 01:46:26;;;;;;;;;;;6.30;99.90;;;;;;5052995;28;19924;-84
2022/02/23 01:48:51;;;;;;;;;;;6.30;99.90;;;;;;5054488;28;19972;-83
2022/02/23 01:51:17;;;;;;;;;;;6.30;99.90;;;;;;5061055;28;20361;-84
2022/02/23 01:53:42;;;;;;;;;;;6.30;99.90;;;;;;5054011;28;19917;-84
2022/02/23 01:56:08;;;;;;;;;;;6.30;99.90;;;;;;5053807;28;20372;-84
2022/02/23 01:58:33;;;;;;;;;;;6.30;94.10;;;;;;5054837;28;19945;-84
2022/02/23 02:00:59;;;;;;;;;;;6.30;45.20;;;;;;5054333;28;19917;-83
2022/02/23 02:03:25;;;;;;;;;;;6.20;32.90;;;;;;5053275;28;19963;-83
2022/02/23 02:05:50;;;;;;;;;;;6.20;26.60;;;;;;5055862;28;19962;-83
2022/02/23 02:08:16;;;;;;;;;;;6.20;31.30;;;;;;5055247;28;20055;-85
2022/02/23 02:10:41;;;;;;;;;;;6.20;11.70;;;;;;5055557;28;20376;-84
2022/02/23 02:13:07;;;;;;;;;;;6.10;3.40;;;;;;5051127;28;19913;-84
2022/02/23 02:15:32;;;;;;;;;;;6.10;49.00;;;;;;5056834;28;19913;-84
2022/02/23 02:17:58;;;;;;;;;;;6.10;57.00;;;;;;5054652;28;19963;-83
2022/02/23 02:20:23;;;;;;;;;;;6.00;98.50;;;;;;5052058;28;19920;-83
2022/02/23 02:22:49;;;;;;;;;;;6.00;97.20;;;;;;5055732;28;20418;-84
2022/02/23 02:25:14;;;;;;;;;;;6.00;54.90;;;;;;5050397;28;19992;-84
2022/02/23 02:27:39;;;;;;;;;;;6.00;49.90;;;;;;5056517;28;20331;-84
2022/02/23 02:30:05;;;;;;;;;;;5.90;49.80;;;;;;5052751;28;19936;-84
2022/02/23 02:32:31;;;;;;;;;;;5.90;90.60;;;;;;5052397;28;19996;-83
2022/02/23 02:34:56;;;;;;;;;;;5.90;81.40;;;;;;5049928;28;20032;-83
2022/02/23 02:37:22;;;;;;;;;;;5.90;82.00;;;;;;5046079;28;19974;-84
2022/02/23 02:39:48;;;;;;;;;;;5.80;46.10;;;;;;5054795;28;20335;-84
2022/02/23 02:42:13;;;;;;;;;;;5.80;90.20;;;;;;5048452;28;19912;-84
2022/02/23 02:44:38;;;;;;;;;;;5.80;58.90;;;;;;5052569;28;19921;-84
2022/02/23 02:47:04;;;;;;;;;;;5.80;99.90;;;;;;5049283;28;20011;-84
2022/02/23 02:49:30;;;;;;;;;;;5.70;99.90;;;;;;5055156;28;19920;-84
2022/02/23 02:51:55;;;;;;;;;;;5.70;99.90;;;;;;5057815;28;19908;-84
2022/02/23 02:54:21;;;;;;;;;;;5.70;99.90;;;;;;5055414;28;19976;-85
2022/02/23 02:56:47;;;;;;;;;;;5.70;99.90;;;;;;5051325;28;19909;-84
2022/02/23 02:59:12;;;;;;;;;;;5.60;99.90;;;;;;5046608;28;19932;-83
2022/02/23 03:01:38;;;;;;;;;;;5.60;99.90;;;;;;5059631;28;19913;-83
2022/02/23 03:04:04;;;;;;;;;;;5.60;99.90;;;;;;5061019;28;19913;-83
2022/02/23 03:06:30;;;;;;;;;;;5.60;99.90;;;;;;5050499;28;19913;-84
2022/02/23 03:08:55;;;;;;;;;;;5.50;99.90;;;;;;5070205;28;19952;-84
2022/02/23 03:11:21;;;;;;;;;;;5.50;99.90;;;;;;5052384;28;19921;-82
2022/02/23 03:13:47;;;;;;;;;;;5.50;99.90;;;;;;5050484;28;19966;-85
2022/02/23 03:16:13;;;;;;;;;;;5.50;99.90;;;;;;5044829;28;19913;-84
2022/02/23 03:18:39;;;;;;;;;;;5.50;99.90;;;;;;5050771;28;20261;-84
2022/02/23 03:21:04;;;;;;;;;;;5.40;99.90;;;;;;5056797;28;19968;-83
2022/02/23 03:23:30;;;;;;;;;;;5.40;99.90;;;;;;5053239;28;19952;-85
2022/02/23 03:25:55;;;;;;;;;;;5.40;99.90;;;;;;5052645;28;19908;-84
2022/02/23 03:28:21;;;;;;;;;;;5.40;99.90;;;;;;5053271;28;19921;-83
2022/02/23 03:30:47;;;;;;;;;;;5.40;99.90;;;;;;5055571;28;20005;-85
2022/02/23 03:33:12;;;;;;;;;;;5.40;99.90;;;;;;5050879;28;19917;-84
2022/02/23 03:35:39;;;;;;;;;;;5.40;99.90;;;;;;5054282;28;19917;-84
2022/02/23 03:38:05;;;;;;;;;;;5.40;99.90;;;;;;5053291;28;19913;-83
2022/02/23 03:40:31;;;;;;;;;;;5.40;90.20;;;;;;5054511;28;19927;-85
2022/02/23 03:42:56;;;;;;;;;;;5.40;81.80;;;;;;5053602;28;20343;-84
2022/02/23 03:45:22;;;;;;;;;;;5.40;51.80;;;;;;5051661;28;19928;-83
2022/02/23 03:47:47;;;;;;;;;;;5.40;80.30;;;;;;5053198;28;20012;-83
2022/02/23 03:50:13;;;;;;;;;;;5.40;90.50;;;;;;5052624;28;20009;-84
2022/02/23 03:52:39;;;;;;;;;;;5.30;56.30;;;;;;5058254;28;19912;-84
2022/02/23 03:55:05;;;;;;;;;;;5.30;58.10;;;;;;5052751;28;19921;-82
2022/02/23 03:57:31;;;;;;;;;;;5.30;95.40;;;;;;5057421;28;20068;-84
2022/02/23 03:59:56;;;;;;;;;;;5.30;49.30;;;;;;5059732;28;20391;-84
2022/02/23 04:02:22;;;;;;;;;;;5.30;26.00;;;;;;5058423;28;19944;-84
2022/02/23 04:04:47;;;;;;;;;;;5.30;21.10;;;;;;5059246;28;19935;-84
2022/02/23 04:07:13;;;;;;;;;;;5.30;1.00;;;;;;5056861;28;19996;-84
2022/02/23 04:09:38;;;;;;;;;;;5.30;1.00;;;;;;5057085;28;19913;-83
2022/02/23 04:12:04;;;;;;;;;;;5.30;1.00;;;;;;5053184;28;19924;-83
2022/02/23 04:14:30;;;;;;;;;;;5.20;1.00;;;;;;5054695;28;19923;-85
2022/02/23 04:16:55;;;;;;;;;;;5.20;74.50;;;;;;5054220;28;19913;-84
2022/02/23 04:19:21;;;;;;;;;;;5.20;81.60;;;;;;5070728;28;20027;-82
2022/02/23 04:21:46;;;;;;;;;;;5.10;99.90;;;;;;5055026;28;19912;-84
2022/02/23 04:24:12;;;;;;;;;;;5.10;99.90;;;;;;5054721;28;20393;-83
2022/02/23 04:26:37;;;;;;;;;;;5.00;99.90;;;;;;5055128;28;19920;-83
2022/02/23 04:29:03;;;;;;;;;;;5.00;99.90;;;;;;5056190;28;19959;-83
2022/02/23 04:31:29;;;;;;;;;;;5.00;99.90;;;;;;5055429;28;20008;-84
2022/02/23 04:33:55;;;;;;;;;;;5.00;99.90;;;;;;5056197;28;19948;-83
2022/02/23 04:36:20;;;;;;;;;;;5.00;99.90;;;;;;5056098;28;20427;-84
2022/02/23 04:38:46;;;;;;;;;;;4.90;99.90;;;;;;5054281;28;19920;-84
2022/02/23 04:41:12;;;;;;;;;;;4.90;99.90;;;;;;5053555;28;19913;-84
2022/02/23 04:43:37;;;;;;;;;;;4.90;99.90;;;;;;5056701;28;19916;-84
2022/02/23 04:46:06;;;;;;;;;;;4.80;99.90;;;;;;5055271;28;20426;-84
2022/02/23 04:48:31;;;;;;;;;;;4.80;99.90;;;;;;5054676;28;19920;-84
2022/02/23 04:50:57;;;;;;;;;;;4.80;99.90;;;;;;5054432;28;19913;-83
2022/02/23 04:53:22;;;;;;;;;;;4.70;99.90;;;;;;5051222;28;19996;-84
2022/02/23 04:55:48;;;;;;;;;;;4.70;99.90;;;;;;5057274;28;19924;-83
2022/02/23 04:58:13;;;;;;;;;;;4.70;1.00;;;;;;5051065;28;20292;-82
2022/02/23 05:00:39;;;;;;;;;;;4.70;1.00;;;;;;5057321;28;19913;-83
2022/02/23 05:03:04;;;;;;;;;;;4.70;1.00;;;;;;5053859;28;19913;-84
2022/02/23 05:05:30;;;;;;;;;;;4.60;1.00;;;;;;5056369;28;20176;-84
2022/02/23 05:07:56;;;;;;;;;;;4.60;1.00;;;;;;5055370;28;19932;-85
2022/02/23 05:10:22;;;;;;;;;;;4.60;1.00;;;;;;5056271;28;19972;-84
2022/02/23 05:12:47;;;;;;;;;;;4.60;1.00;;;;;;5054932;28;19980;-84
2022/02/23 05:15:13;;;;;;;;;;;4.50;1.00;;;;;;5054485;28;19913;-84
2022/02/23 05:17:39;;;;;;;;;;;4.50;1.00;;;;;;5050346;28;19913;-85
2022/02/23 05:20:05;;;;;;;;;;;4.50;1.00;;;;;;5056453;28;19962;-84
2022/02/23 05:22:31;;;;;;;;;;;4.40;1.00;;;;;;5057383;28;19921;-85
2022/02/23 05:24:56;;;;;;;;;;;4.40;1.00;;;;;;5050566;28;19913;-84
2022/02/23 05:27:21;;;;;;;;;;;4.40;1.00;;;;;;5069474;28;20028;-84
2022/02/23 05:29:47;;;;;;;;;;;4.40;1.00;;;;;;5055791;28;19912;-83
2022/02/23 05:32:13;;;;;;;;;;;4.30;1.00;;;;;;5052437;28;19912;-84
2022/02/23 05:34:38;;;;;;;;;;;4.30;1.00;;;;;;5048611;28;20420;-84
2022/02/23 05:37:04;;;;;;;;;;;4.30;1.00;;;;;;5054841;28;19936;-84
2022/02/23 05:39:29;;;;;;;;;;;4.20;1.00;;;;;;5054256;28;19978;-84
2022/02/23 05:41:55;;;;;;;;;;;4.20;1.00;;;;;;5057302;28;20069;-84
2022/02/23 05:44:20;;;;;;;;;;;4.20;1.00;;;;;;5051826;28;19921;-83
2022/02/23 05:46:46;;;;;;;;;;;4.20;1.00;;;;;;5050674;28;20308;-84
2022/02/23 05:49:11;;;;;;;;;;;4.20;1.00;;;;;;5048995;28;20020;-84
2022/02/23 05:51:38;;;;;;;;;;;4.20;1.00;;;;;;5050205;28;20008;-84
2022/02/23 05:54:04;;;;;;;;;;;4.20;1.00;;;;;;5048116;28;19913;-85
2022/02/23 05:56:30;;;;;;;;;;;4.20;1.00;;;;;;5067011;28;21889;-85
2022/02/23 05:58:55;;;;;;;;;;;4.20;1.00;;;;;;5051256;28;19921;-84
2022/02/23 06:01:21;;;;;;;;;;;4.20;1.00;;;;;;5068479;28;19967;-84
2022/02/23 06:03:47;;;;;;;;;;;4.20;1.00;;;;;;5051059;28;19920;-85
2022/02/23 06:06:12;;;;;;;;;;;4.20;1.00;;;;;;5050774;28;19921;-85
2022/02/23 06:08:38;;;;;;;;;;;4.20;1.00;;;;;;5052345;28;19963;-85
2022/02/23 06:11:04;;;;;;;;;;;4.20;1.00;;;;;;5053790;28;19920;-85
2022/02/23 06:13:29;;;;;;;;;;;4.20;1.00;;;;;;5051133;28;20293;-85
2022/02/23 06:15:55;;;;;;;;;;;4.20;1.00;;;;;;5051984;28;20000;-85
2022/02/23 06:18:21;;;;;;;;;;;4.20;1.00;;;;;;5053907;28;19917;-84
2022/02/23 06:20:46;;;;;;;;;;;4.20;1.00;;;;;;5055031;28;19913;-85
2022/02/23 06:23:12;;;;;;;;;;;4.20;1.00;;;;;;5046934;28;20279;-84
2022/02/23 06:25:37;;;;;;;;;;;4.20;1.00;;;;;;5049390;28;19996;-84
2022/02/23 06:28:03;;;;;;;;;;;4.20;1.00;;;;;;5052107;28;19912;-85
2022/02/23 06:30:29;;;;;;;;;;;4.20;1.00;;;;;;5068154;28;19962;-84
2022/02/23 06:32:54;;;;;;;;;;;4.20;1.00;;;;;;5051793;28;19912;-83
2022/02/23 06:35:20;;;;;;;;;;;4.20;1.00;;;;;;5067214;28;19939;-84
2022/02/23 06:37:46;;;;;;;;;;;4.20;1.00;;;;;;5049859;28;20393;-85
2022/02/23 06:40:12;;;;;;;;;;;4.40;1.00;;;;;;5043673;28;19999;-85
2022/02/23 06:42:37;;;;;;;;;;;4.50;1.00;;;;;;5042531;28;20011;-85
2022/02/23 06:45:04;;;;;;;;;;;4.70;1.00;;;;;;5043806;28;20005;-85
2022/02/23 06:47:29;;;;;;;;;;;4.80;1.00;;;;;;5064841;28;19968;-85
2022/02/23 06:49:54;;;;;;;;;;;4.90;99.90;;;;;;5044444;28;19952;-85
2022/02/23 06:52:21;;;;;;;;;;;5.00;99.90;;;;;;5048562;28;19912;-84
2022/02/23 06:54:46;;;;;;;;;;;5.10;99.90;;;;;;5050601;28;19935;-84
2022/02/23 06:57:12;;;;;;;;;;;5.20;99.90;;;;;;5043236;28;19921;-85
2022/02/23 06:59:38;;;;;;;;;;;5.30;99.90;;;;;;5045246;28;19925;-84
2022/02/23 07:02:09;;;;;;;;;;;5.40;47.50;;;;;;5045830;28;20707;-85
2022/02/23 07:04:35;;;;;;;;;;;5.50;1.00;;;;;;5065101;28;19929;-85
2022/02/23 07:07:00;;;;;;;;;;;5.60;1.00;;;;;;5047414;28;20035;-84
2022/02/23 07:09:26;;;;;;;;;;;5.70;1.00;;;;;;5050784;28;20289;-84
2022/02/23 07:11:52;;;;;;;;;;;5.80;99.90;;;;;;5041354;28;19974;-85
2022/02/23 07:14:19;;;;;;;;;;;5.90;99.90;;;;;;5041879;28;19956;-85
2022/02/23 07:16:44;;;;;;;;;;;7.00;99.90;;;;;;5047204;28;19920;-86
2022/02/23 07:19:10;;;;;;;;;;;8.40;1.00;;;;;;5042481;28;19916;-86
2022/02/23 07:21:35;;;;;;;;;;;9.20;99.90;;;;;;5042836;28;19921;-86
2022/02/23 07:24:01;;;;;;;;;;;10.50;1.00;;;;;;5044488;28;20488;-86
2022/02/23 07:26:27;;;;;;;;;;;12.30;1.00;;;;;;5040367;28;19923;-85
2022/02/23 07:28:52;;;;;;;;;;;13.20;1.00;;;;;;5046934;28;19920;-85
2022/02/23 07:31:18;;;;;;;;;;;12.90;1.00;;;;;;5043557;28;19917;-84
2022/02/23 07:33:45;;;;;;;;;;;12.40;1.00;;;;;;5043048;28;19913;-85
2022/02/23 07:36:11;;;;;;;;;;;14.10;1.00;;;;;;5040679;28;20292;-85
2022/02/23 07:38:38;;;;;;;;;;;16.40;1.00;;;;;;5063050;28;19924;-85
2022/02/23 07:41:07;;;;;;;;;;;18.30;1.00;;;;;;5041578;28;19966;-85
2022/02/23 07:43:33;;;;;;;;;;;20.00;1.00;;;;;;5040954;28;19947;-86
2022/02/23 07:45:59;;;;;;;;;;;21.50;1.00;;;;;;5047936;28;19916;-85
2022/02/23 07:48:25;;;;;;;;;;;22.70;1.00;;;;;;5051905;28;19917;-86
2022/02/23 07:50:50;;;;;;;;;;;23.60;1.00;;;;;;5051964;28;19943;-84
2022/02/23 07:53:15;;;;;;;;;;;24.50;1.00;;;;;;5046485;28;19920;-84
2022/02/23 07:55:41;;;;;;;;;;;25.30;1.00;;;;;;5040370;28;19908;-82
2022/02/23 07:58:07;;;;;;;;;;;26.10;1.00;;;;;;5044582;28;19908;-83
2022/02/23 08:00:33;;;;;;;;;;;26.50;1.00;;;;;;5065157;28;20000;-84
2022/02/23 08:02:58;;;;;;;;;;;27.20;1.00;;;;;;5040624;28;19936;-82
2022/02/23 08:05:24;;;;;;;;;;;27.60;1.00;;;;;;5031458;28;20273;-82
2022/02/23 08:07:50;;;;;;;;;;;28.00;1.00;;;;;;5046349;28;19913;-83
2022/02/23 08:10:16;;;;;;;;;;;28.40;1.00;;;;;;5046786;28;19921;-83
2022/02/23 08:12:41;;;;;;;;;;;28.70;1.00;;;;;;5050067;28;19913;-83
2022/02/23 08:20:39;;;;;;;;;;;30.00;1.00;;;;;;5045210;28;20377;-83
2022/02/23 08:23:04;;;;;;;;;;;30.30;1.00;;;;;;5046578;28;19931;-83
2022/02/23 08:25:30;;;;;;;;;;;30.60;1.00;;;;;;5040865;28;20593;-83
2022/02/23 08:27:56;;;;;;;;;;;31.00;99.90;;;;;;5048053;28;19921;-83
2022/02/23 08:30:21;;;;;;;;;;;31.10;99.90;;;;;;5039370;28;19913;-83
2022/02/23 08:32:47;;;;;;;;;;;31.20;99.90;;;;;;5043948;28;19948;-83
2022/02/23 08:35:13;;;;;;;;;;;31.50;99.90;;;;;;5042401;28;19936;-83
2022/02/23 08:37:39;;;;;;;;;;;31.70;99.90;;;;;;5065870;28;21744;-83
2022/02/23 08:40:05;;;;;;;;;;;32.10;99.90;;;;;;5044311;28;19920;-83
2022/02/23 08:42:31;;;;;;;;;;;32.50;99.90;;;;;;5048341;28;19917;-83
2022/02/23 08:44:56;;;;;;;;;;;32.80;99.90;;;;;;5047952;28;19917;-83
2022/02/23 08:47:25;;;;;;;;;;;33.10;99.90;;;;;;5043244;28;19909;-84
2022/02/23 08:49:51;;;;;;;;;;;33.50;99.90;;;;;;5045792;28;19920;-83
2022/02/23 08:52:17;;;;;;;;;;;33.80;99.90;;;;;;5040396;28;19909;-83
2022/02/23 08:54:43;;;;;;;;;;;33.90;99.90;;;;;;5044139;28;19917;-83
2022/02/23 08:57:09;;;;;;;;;;;33.60;99.90;;;;;;5043250;28;19992;-83
2022/02/23 08:59:35;;;;;;;;;;;33.50;99.90;;;;;;5059347;28;19921;-83
2022/02/23 09:02:00;;;;;;;;;;;33.40;99.90;;;;;;5051691;28;20361;-83
2022/02/23 09:04:26;;;;;;;;;;;33.40;99.90;;;;;;5060421;28;19916;-83
2022/02/23 09:06:52;;;;;;;;;;;33.30;99.90;;;;;;5043755;28;19913;-84
2022/02/23 09:09:18;;;;;;;;;;;33.00;99.90;;;;;;5037424;28;19913;-83
2022/02/23 09:11:44;;;;;;;;;;;33.00;99.90;;;;;;5042436;28;19920;-83
2022/02/23 09:14:10;;;;;;;;;;;33.30;99.90;;;;;;5045047;28;19919;-83
2022/02/23 09:16:36;;;;;;;;;;;33.50;99.90;;;;;;5046384;28;19913;-84
2022/02/23 09:19:02;;;;;;;;;;;33.50;99.90;;;;;;5043947;28;19917;-83
2022/02/23 09:21:27;;;;;;;;;;;33.00;99.90;;;;;;5062220;28;20377;-83
2022/02/23 09:23:53;;;;;;;;;;;33.00;99.90;;;;;;5044270;28;19951;-83
2022/02/23 09:26:19;;;;;;;;;;;33.00;99.90;;;;;;5043104;28;20357;-84
2022/02/23 09:28:45;;;;;;;;;;;32.80;99.90;;;;;;5047667;28;19921;-83
2022/02/23 09:31:12;;;;;;;;;;;32.80;99.90;;;;;;5040875;28;19909;-83
2022/02/23 09:33:38;;;;;;;;;;;32.70;99.90;;;;;;5043507;28;19921;-83
2022/02/23 09:36:04;;;;;;;;;;;32.90;99.90;;;;;;5046616;28;19919;-85
2022/02/23 09:38:30;;;;;;;;;;;32.90;99.90;;;;;;5062822;28;19917;-84
2022/02/23 09:40:57;;;;;;;;;;;32.90;99.90;;;;;;5046375;28;20389;-84
2022/02/23 09:43:22;;;;;;;;;;;33.00;99.90;;;;;;5039575;28;19975;-84
2022/02/23 09:45:53;;;;;;;;;;;33.40;99.90;;;;;;5046688;28;19920;-83
2022/02/23 09:48:19;;;;;;;;;;;33.60;99.90;;;;;;5041089;28;19958;-83
2022/02/23 09:50:45;;;;;;;;;;;33.40;99.90;;;;;;5040464;28;20011;-83
2022/02/23 09:53:11;;;;;;;;;;;33.10;99.90;;;;;;5049214;28;20062;-84
2022/02/23 09:55:36;;;;;;;;;;;33.30;99.90;;;;;;5038385;28;19914;-83
2022/02/23 09:58:02;;;;;;;;;;;33.00;99.90;;;;;;5046211;28;19920;-83
2022/02/23 10:00:28;;;;;;;;;;;32.60;99.90;;;;;;5045408;28;20000;-84
2022/02/23 10:02:54;;;;;;;;;;;32.50;99.90;;;;;;5048882;28;19966;-84
2022/02/23 10:05:21;;;;;;;;;;;32.40;99.90;;;;;;5046387;28;19913;-84
2022/02/23 10:07:47;;;;;;;;;;;32.40;99.90;;;;;;5049142;28;19913;-83
2022/02/23 10:10:13;;;;;;;;;;;32.50;99.90;;;;;;5038443;28;19975;-84
2022/02/23 10:12:41;;;;;;;;;;;32.90;99.90;;;;;;5046668;28;20257;-84
2022/02/23 10:15:07;;;;;;;;;;;32.80;99.90;;;;;;5042250;28;19913;-84
2022/02/23 10:17:44;;;;;;;;;;;33.20;99.90;;;;;;5066650;28;19935;-84
2022/02/23 10:20:39;;;;;;;;;;;33.20;99.90;;;;;;5043996;28;19916;-83
2022/02/23 10:23:20;;;;;;;;;;;33.00;99.90;;;;;;5048699;28;19948;-83
2022/02/23 10:26:00;;;;;;;;;;;32.30;99.90;;;;;;5045020;28;19920;-83
2022/02/23 10:28:27;;;;;;;;;;;32.40;99.90;;;;;;5058165;28;19916;-84
2022/02/23 10:30:57;;;;;;;;;;;32.60;99.90;;;;;;5048100;28;20417;-83
2022/02/23 10:33:23;;;;;;;;;;;32.40;99.90;;;;;;5063155;28;19917;-84
2022/02/23 10:36:03;;;;;;;;;;;32.30;99.90;;;;;;5046385;28;19936;-84
2022/02/23 10:38:30;;;;;;;;;;;32.40;99.90;;;;;;5044112;28;19967;-84
2022/02/23 10:40:56;;;;;;;;;;;32.50;99.90;;;;;;5048279;28;20389;-83
2022/02/23 10:43:23;;;;;;;;;;;32.70;99.90;;;;;;5047393;28;19924;-83
2022/02/23 10:45:52;;;;;;;;;;;31.80;99.90;;;;;;5046632;28;19924;-83
2022/02/23 10:48:31;;;;;;;;;;;32.10;99.90;;;;;;5032578;28;19910;-84
2022/02/23 10:50:56;;;;;;;;;;;32.30;99.90;;;;;;5041100;28;19919;-84
2022/02/23 10:53:26;;;;;;;;;;;32.90;99.90;;;;;;5049510;28;19913;-84
2022/02/23 10:55:51;;;;;;;;;;;32.90;99.90;;;;;;5043647;28;20415;-84
2022/02/23 10:58:17;;;;;;;;;;;32.90;99.90;;;;;;5042551;28;19917;-84
2022/02/23 11:00:44;;;;;;;;;;;32.80;99.90;;;;;;5038697;28;20297;-84
2022/02/23 11:03:11;;;;;;;;;;;32.80;99.90;;;;;;5042805;28;19920;-84
2022/02/23 11:05:36;;;;;;;;;;;33.00;99.90;;;;;;5041560;28;20000;-84
2022/02/23 11:08:03;;;;;;;;;;;32.70;99.90;;;;;;5042410;28;20335;-84
2022/02/23 11:10:29;;;;;;;;;;;32.70;99.90;;;;;;5049064;28;20006;-84
2022/02/23 11:12:56;;;;;;;;;;;32.60;99.90;;;;;;5039223;28;20031;-84
2022/02/23 11:15:23;;;;;;;;;;;32.10;99.90;;;;;;5058512;28;20003;-84
2022/02/23 11:17:52;;;;;;;;;;;31.90;99.90;;;;;;5041471;28;19914;-84
2022/02/23 11:20:20;;;;;;;;;;;31.70;99.90;;;;;;5036387;28;20284;-84
2022/02/23 11:22:56;;;;;;;;;;;31.60;99.90;;;;;;5064813;28;19932;-84
2022/02/23 11:25:33;;;;;;;;;;;31.20;99.90;;;;;;5040466;28;19921;-84
2022/02/23 11:28:06;;;;;;;;;;;30.30;99.90;;;;;;5039633;28;19913;-84
2022/02/23 11:30:32;;;;;;;;;;;30.00;99.90;;;;;;5056872;28;20415;-84
2022/02/23 11:32:59;;;;;;;;;;;29.80;99.90;;;;;;5040000;28;19952;-84
2022/02/23 11:35:39;;;;;;;;;;;29.60;99.90;;;;;;5043500;28;19913;-84
2022/02/23 11:38:06;;;;;;;;;;;29.70;99.90;;;;;;5041158;28;20424;-84
2022/02/23 11:40:45;;;;;;;;;;;29.70;99.90;;;;;;5042874;28;20008;-84
2022/02/23 11:43:29;;;;;;;;;;;28.90;99.90;;;;;;5041504;28;19917;-84
2022/02/23 11:45:59;;;;;;;;;;;28.50;99.90;;;;;;5046198;28;19913;-84
2022/02/23 11:48:24;;;;;;;;;;;28.60;99.90;;;;;;5035352;28;19955;-84
2022/02/23 11:51:01;;;;;;;;;;;28.90;99.90;;;;;;5047724;28;19956;-84
2022/02/23 11:53:37;;;;;;;;;;;28.90;99.90;;;;;;5051654;28;19967;-84
2022/02/23 11:56:13;;;;;;;;;;;28.70;99.90;;;;;;5046810;28;19940;-84
2022/02/23 11:58:43;;;;;;;;;;;28.90;99.90;;;;;;5046167;28;19925;-83
2022/02/23 12:01:08;;;;;;;;;;;29.10;99.90;;;;;;5047086;28;19920;-83
2022/02/23 12:03:34;;;;;;;;;;;28.90;99.90;;;;;;5044195;28;19913;-84
2022/02/23 12:06:05;;;;;;;;;;;29.20;99.90;;;;;;5038576;28;19913;-84
2022/02/23 12:08:33;;;;;;;;;;;29.30;99.90;;;;;;5041324;28;20310;-84
2022/02/23 12:11:04;;;;;;;;;;;29.60;99.90;;;;;;5043648;28;19964;-84
2022/02/23 12:13:42;;;;;;;;;;;29.80;99.90;;;;;;5047323;28;19924;-84
2022/02/23 12:16:24;;;;;;;;;;;29.80;99.90;;;;;;5045272;28;19958;-85
2022/02/23 12:18:51;;;;;;;;;;;29.40;99.90;;;;;;5049458;28;19920;-84
2022/02/23 12:21:17;;;;;;;;;;;29.40;99.90;;;;;;5052818;28;19913;-85
2022/02/23 12:23:44;;;;;;;;;;;29.40;99.90;;;;;;5052269;28;19932;-84
2022/02/23 12:26:15;;;;;;;;;;;28.90;99.90;;;;;;5054432;28;20007;-85
2022/02/23 12:28:41;;;;;;;;;;;28.80;99.90;;;;;;5048592;28;19916;-86
2022/02/23 12:31:07;;;;;;;;;;;28.80;99.90;;;;;;5052787;28;20003;-85
2022/02/23 12:33:33;;;;;;;;;;;29.00;99.90;;;;;;5045808;28;20380;-85
2022/02/23 12:36:00;;;;;;;;;;;28.50;99.90;;;;;;5052891;28;19917;-86
2022/02/23 12:38:28;;;;;;;;;;;27.70;99.90;;;;;;5049680;28;19925;-85
2022/02/23 12:40:54;;;;;;;;;;;27.50;99.90;;;;;;5051761;28;19959;-85
2022/02/23 12:43:20;;;;;;;;;;;27.50;99.90;;;;;;5034752;28;20309;-85
2022/02/23 12:45:49;;;;;;;;;;;27.40;99.90;;;;;;5035243;28;20362;-85
2022/02/23 12:48:15;;;;;;;;;;;27.20;99.90;;;;;;5034114;28;19913;-85
2022/02/23 12:50:40;;;;;;;;;;;27.10;99.90;;;;;;5044354;28;19924;-84
2022/02/23 12:53:06;;;;;;;;;;;26.80;99.90;;;;;;5048385;28;19938;-84
2022/02/23 12:55:32;;;;;;;;;;;26.80;99.90;;;;;;5053417;28;20327;-84
2022/02/23 12:57:57;;;;;;;;;;;26.80;99.90;;;;;;5052930;28;19919;-84
2022/02/23 13:00:24;;;;;;;;;;;26.80;99.90;;;;;;5053193;28;19912;-83
2022/02/23 13:02:50;;;;;;;;;;;25.90;99.90;;;;;;5050451;28;19917;-84
2022/02/23 13:05:15;;;;;;;;;;;25.00;99.90;;;;;;5052791;28;20003;-84
2022/02/23 13:07:41;;;;;;;;;;;25.40;99.90;;;;;;5051707;28;20003;-84
2022/02/23 13:10:07;;;;;;;;;;;25.30;99.90;;;;;;5053241;28;19909;-85
2022/02/23 13:12:34;;;;;;;;;;;25.30;99.90;;;;;;5053043;28;19913;-84
2022/02/23 13:14:59;;;;;;;;;;;25.10;99.90;;;;;;5052519;28;20269;-84
2022/02/23 13:17:25;;;;;;;;;;;25.00;99.90;;;;;;5053329;28;19913;-84
2022/02/23 13:19:51;;;;;;;;;;;25.10;99.90;;;;;;5051802;28;19924;-83
2022/02/23 13:22:17;;;;;;;;;;;25.00;99.90;;;;;;5049992;28;20499;-84
2022/02/23 13:24:44;;;;;;;;;;;25.00;99.90;;;;;;5053217;28;19912;-84
2022/02/23 13:27:10;;;;;;;;;;;25.00;99.90;;;;;;5051768;28;19913;-83
2022/02/23 13:29:36;;;;;;;;;;;24.70;99.90;;;;;;5051259;28;19913;-83
2022/02/23 13:32:06;;;;;;;;;;;24.70;99.90;;;;;;5052205;28;19924;-84
2022/02/23 13:34:42;;;;;;;;;;;24.30;99.90;;;;;;5051514;28;19928;-84
2022/02/23 13:37:09;;;;;;;;;;;24.10;99.90;;;;;;5052666;28;19909;-84
2022/02/23 13:39:44;;;;;;;;;;;24.00;99.90;;;;;;5052930;28;19927;-84
2022/02/23 13:42:11;;;;;;;;;;;24.10;99.90;;;;;;5052794;28;20273;-84
2022/02/23 13:44:37;;;;;;;;;;;23.70;99.90;;;;;;5054141;28;19947;-83
2022/02/23 13:47:04;;;;;;;;;;;23.50;99.90;;;;;;5049250;28;19916;-84
2022/02/23 13:49:30;;;;;;;;;;;23.40;99.90;;;;;;5040103;28;19924;-83
2022/02/23 13:51:57;;;;;;;;;;;23.00;99.90;;;;;;5032368;28;19929;-83
2022/02/23 13:54:23;;;;;;;;;;;22.90;99.90;;;;;;5051182;28;19967;-84
2022/02/23 13:56:49;;;;;;;;;;;22.90;99.90;;;;;;5052781;28;19917;-84
2022/02/23 13:59:19;;;;;;;;;;;22.70;99.90;;;;;;5053440;28;20456;-83
2022/02/23 14:02:02;;;;;;;;;;;22.70;99.90;;;;;;5051053;28;19924;-84
2022/02/23 14:04:34;;;;;;;;;;;22.80;99.90;;;;;;5043114;28;19956;-84
2022/02/23 14:07:00;;;;;;;;;;;22.50;99.90;;;;;;5035413;28;19925;-84
2022/02/23 14:09:25;;;;;;;;;;;22.40;99.90;;;;;;5052000;28;20562;-83
2022/02/23 14:11:57;;;;;;;;;;;22.00;99.90;;;;;;5057326;28;19908;-84
2022/02/23 14:14:22;;;;;;;;;;;21.80;99.90;;;;;;5055137;28;20547;-83
2022/02/23 14:16:48;;;;;;;;;;;21.80;99.90;;;;;;5057690;28;19913;-83
2022/02/23 14:19:14;;;;;;;;;;;21.60;99.90;;;;;;5056548;28;19913;-83
2022/02/23 14:21:40;;;;;;;;;;;21.60;99.90;;;;;;5057389;28;19915;-84
2022/02/23 14:24:08;;;;;;;;;;;21.60;99.90;;;;;;5055075;28;19912;-83
2022/02/23 14:26:34;;;;;;;;;;;21.30;99.90;;;;;;5050113;28;19942;-84
2022/02/23 14:29:07;;;;;;;;;;;21.40;99.90;;;;;;5051415;28;19910;-84